createdAt,value
2023-03-07T00:00:23.195Z,65.40
2023-03-07T00:02:53.295Z,65.24
2023-03-07T00:05:21.100Z,63.84
2023-03-07T00:07:47.906Z,65.05
2023-03-07T00:10:15.113Z,64.68
2023-03-07T00:12:41.956Z,66.07
2023-03-07T00:15:08.990Z,65.97
2023-03-07T00:17:38.905Z,66.69
2023-03-07T00:20:07.669Z,67.88
2023-03-07T00:22:35.405Z,69.19
2023-03-07T00:25:02.329Z,70.53
2023-03-07T00:27:30.448Z,69.06
2023-03-07T00:29:57.391Z,68.54
2023-03-07T00:32:24.148Z,69.70
2023-03-07T00:34:50.711Z,71.10
2023-03-07T00:37:17.018Z,71.20
2023-03-07T00:39:43.725Z,71.32
2023-03-07T00:42:10.380Z,71.15
2023-03-07T00:44:36.789Z,71.00
2023-03-07T00:47:03.871Z,70.93
2023-03-07T00:49:30.690Z,69.68
2023-03-07T00:51:57.359Z,70.52
2023-03-07T00:54:23.951Z,70.53
2023-03-07T00:56:50.760Z,70.81
2023-03-07T00:59:17.438Z,71.94
2023-03-07T01:01:44.251Z,70.92
2023-03-07T01:04:10.871Z,71.47
2023-03-07T01:06:37.399Z,71.11
2023-03-07T01:09:05.690Z,71.57
2023-03-07T01:11:32.464Z,71.34
2023-03-07T01:14:01.637Z,71.94
2023-03-07T01:16:29.797Z,71.38
2023-03-07T01:18:57.487Z,72.50
2023-03-07T01:21:28.382Z,72.45
2023-03-07T01:23:55.250Z,70.21
2023-03-07T01:26:23.109Z,71.38
2023-03-07T01:28:54.247Z,71.21
2023-03-07T01:31:21.752Z,71.58
2023-03-07T01:33:49.289Z,71.21
2023-03-07T01:36:20.779Z,72.01
2023-03-07T01:38:48.257Z,71.72
2023-03-07T01:41:15.337Z,72.47
2023-03-07T01:43:42.029Z,70.86
2023-03-07T01:46:17.815Z,69.20
2023-03-07T01:48:50.784Z,68.46
2023-03-07T01:51:18.186Z,70.38
2023-03-07T01:53:45.251Z,71.42
2023-03-07T01:56:12.061Z,71.05
2023-03-07T01:58:39.273Z,71.10
2023-03-07T02:01:10.175Z,72.87
2023-03-07T02:03:55.267Z,71.73
2023-03-07T02:06:22.763Z,72.32
2023-03-07T02:08:49.712Z,73.25
2023-03-07T02:11:16.756Z,71.04
2023-03-07T02:13:43.351Z,70.07
2023-03-07T02:16:10.378Z,71.34
2023-03-07T02:18:42.763Z,70.81
2023-03-07T02:21:19.238Z,70.68
2023-03-07T02:23:48.819Z,72.89
2023-03-07T02:26:21.277Z,72.82
2023-03-07T02:28:48.253Z,72.34
2023-03-07T02:31:14.834Z,71.70
2023-03-07T02:33:41.302Z,71.58
2023-03-07T02:36:28.194Z,73.14
2023-03-07T02:38:56.688Z,73.10
2023-03-07T02:41:26.006Z,72.38
2023-03-07T02:43:52.414Z,71.19
2023-03-07T02:46:19.858Z,72.59
2023-03-07T02:48:46.688Z,72.15
2023-03-07T02:51:13.236Z,71.39
2023-03-07T02:53:39.755Z,72.25
2023-03-07T02:56:06.598Z,73.75
2023-03-07T02:58:33.034Z,73.31
2023-03-07T03:00:59.598Z,71.83
2023-03-07T03:03:26.168Z,74.17
2023-03-07T03:05:52.803Z,73.80
2023-03-07T03:08:19.446Z,75.52
2023-03-07T03:10:45.840Z,74.11
2023-03-07T03:13:12.156Z,73.52
2023-03-07T03:15:38.782Z,74.56
2023-03-07T03:18:05.866Z,74.42
2023-03-07T03:20:32.336Z,74.35
2023-03-07T03:22:58.987Z,76.67
2023-03-07T03:25:27.093Z,75.02
2023-03-07T03:27:54.056Z,75.63
2023-03-07T03:30:20.737Z,77.47
2023-03-07T03:32:47.533Z,76.16
2023-03-07T03:35:14.611Z,75.09
2023-03-07T03:37:41.828Z,76.48
2023-03-07T03:40:14.664Z,76.70
2023-03-07T03:42:42.332Z,75.22
2023-03-07T03:45:10.096Z,75.98
2023-03-07T03:47:37.065Z,77.82
2023-03-07T03:50:04.319Z,76.29
2023-03-07T03:52:30.818Z,74.42
2023-03-07T03:54:57.499Z,72.35
2023-03-07T03:57:24.320Z,74.30
2023-03-07T03:59:51.535Z,76.87
2023-03-07T04:02:18.449Z,78.22
2023-03-07T04:04:45.034Z,77.10
2023-03-07T04:07:11.578Z,76.92
2023-03-07T04:09:37.928Z,76.85
2023-03-07T04:12:04.424Z,74.99
2023-03-07T04:14:30.920Z,74.78
2023-03-07T04:16:58.012Z,78.17
2023-03-07T04:19:24.687Z,78.99
2023-03-07T04:21:51.114Z,78.63
2023-03-07T04:24:17.508Z,76.90
2023-03-07T04:26:43.838Z,76.67
2023-03-07T04:29:10.386Z,76.18
2023-03-07T04:31:36.800Z,78.65
2023-03-07T04:34:03.591Z,77.91
2023-03-07T04:36:29.945Z,77.31
2023-03-07T04:38:56.373Z,77.77
2023-03-07T04:41:26.043Z,77.24
2023-03-07T04:43:52.382Z,76.71
2023-03-07T04:46:19.469Z,77.69
2023-03-07T04:48:46.340Z,76.51
2023-03-07T04:51:13.396Z,81.35
2023-03-07T04:53:39.981Z,79.74
2023-03-07T04:56:07.207Z,80.91
2023-03-07T04:58:33.968Z,80.22
2023-03-07T05:01:01.445Z,79.44
2023-03-07T05:03:28.425Z,78.00
2023-03-07T05:05:56.269Z,77.96
2023-03-07T05:08:23.104Z,79.23
2023-03-07T05:10:49.495Z,77.77
2023-03-07T05:13:15.961Z,77.87
2023-03-07T05:15:42.457Z,77.88
2023-03-07T05:18:08.969Z,75.47
2023-03-07T05:20:35.406Z,73.75
2023-03-07T05:23:01.909Z,73.57
2023-03-07T05:25:28.612Z,73.18
2023-03-07T05:27:55.472Z,74.56
2023-03-07T05:30:22.259Z,71.92
2023-03-07T05:32:49.038Z,73.18
2023-03-07T05:35:16.739Z,73.91
2023-03-07T05:37:43.550Z,73.23
2023-03-07T05:40:10.715Z,75.83
2023-03-07T05:42:38.674Z,74.78
2023-03-07T05:45:06.082Z,74.22
2023-03-07T05:47:32.918Z,73.81
2023-03-07T05:49:59.581Z,72.60
2023-03-07T05:52:33.748Z,72.56
2023-03-07T05:55:01.127Z,73.14
2023-03-07T05:57:28.435Z,74.34
2023-03-07T05:59:55.466Z,72.43
2023-03-07T06:02:24.439Z,73.37
2023-03-07T06:04:51.759Z,75.06
2023-03-07T06:07:18.619Z,75.01
2023-03-07T06:09:45.248Z,75.24
2023-03-07T06:12:12.002Z,73.71
2023-03-07T06:14:38.702Z,73.78
2023-03-07T06:17:05.972Z,71.13
2023-03-07T06:19:33.994Z,71.27
2023-03-07T06:22:00.759Z,72.89
2023-03-07T06:24:28.960Z,70.63
2023-03-07T06:26:56.017Z,71.47
2023-03-07T06:29:23.094Z,70.60
2023-03-07T06:31:52.573Z,70.74
2023-03-07T06:34:19.481Z,72.46
2023-03-07T06:37:00.232Z,71.19
2023-03-07T06:39:29.614Z,71.34
2023-03-07T06:41:57.524Z,71.45
2023-03-07T06:44:25.138Z,69.59
2023-03-07T06:46:52.239Z,68.70
2023-03-07T06:49:26.476Z,69.50
2023-03-07T06:51:53.191Z,68.14
2023-03-07T06:54:26.253Z,68.83
2023-03-07T06:56:53.110Z,68.95
2023-03-07T06:59:19.889Z,67.22
2023-03-07T07:01:48.968Z,67.49
2023-03-07T07:04:18.762Z,66.59
2023-03-07T07:06:51.988Z,67.79
2023-03-07T07:09:19.013Z,67.58
2023-03-07T07:11:45.678Z,67.20
2023-03-07T07:14:21.135Z,68.68
2023-03-07T07:16:48.016Z,69.53
2023-03-07T07:19:15.557Z,70.24
2023-03-07T07:21:50.527Z,71.50
2023-03-07T07:24:17.537Z,71.07
2023-03-07T07:26:46.555Z,70.68
2023-03-07T07:29:14.042Z,69.57
2023-03-07T07:31:42.515Z,68.34
2023-03-07T07:34:11.248Z,67.09
2023-03-07T07:36:38.128Z,67.83
2023-03-07T07:39:06.320Z,68.77
2023-03-07T07:41:33.652Z,70.25
2023-03-07T07:44:00.785Z,72.14
2023-03-07T07:46:30.486Z,69.90
2023-03-07T07:49:05.642Z,70.89
2023-03-07T07:51:34.065Z,70.16
2023-03-07T07:54:01.072Z,70.45
2023-03-07T07:56:35.969Z,71.41
2023-03-07T07:59:02.598Z,72.37
2023-03-07T08:01:29.407Z,71.10
2023-03-07T08:03:56.087Z,70.39
2023-03-07T08:06:26.050Z,68.12
2023-03-07T08:08:53.023Z,68.51
2023-03-07T08:11:28.177Z,67.52
2023-03-07T08:14:01.979Z,68.37
2023-03-07T08:16:30.744Z,71.12
2023-03-07T08:18:57.948Z,69.63
2023-03-07T08:21:27.886Z,69.08
2023-03-07T08:23:55.139Z,68.72
2023-03-07T08:26:22.244Z,65.89
2023-03-07T08:28:49.948Z,66.09
2023-03-07T08:31:19.090Z,65.40
2023-03-07T08:33:50.707Z,65.27
2023-03-07T08:36:17.671Z,65.15
2023-03-07T08:38:44.649Z,65.08
2023-03-07T08:41:19.562Z,64.31
2023-03-07T08:43:46.320Z,64.56
2023-03-07T08:46:13.607Z,66.68
2023-03-07T08:48:40.646Z,68.13
2023-03-07T08:51:08.578Z,68.33
2023-03-07T08:53:35.109Z,69.17
2023-03-07T08:56:06.168Z,68.09
2023-03-07T08:58:34.962Z,70.13
2023-03-07T09:01:01.986Z,69.20
2023-03-07T09:03:28.801Z,66.67
2023-03-07T09:06:15.052Z,68.40
2023-03-07T09:08:41.560Z,66.64
2023-03-07T09:11:08.915Z,66.77
2023-03-07T09:13:43.024Z,64.68
2023-03-07T09:16:13.148Z,63.32
2023-03-07T09:18:39.810Z,63.31
2023-03-07T09:21:21.310Z,65.27
2023-03-07T09:23:48.212Z,64.26
2023-03-07T09:26:25.379Z,66.02
2023-03-07T09:28:52.231Z,63.03
2023-03-07T09:31:19.404Z,64.66
2023-03-07T09:33:47.041Z,66.80
2023-03-07T09:36:21.320Z,67.06
2023-03-07T09:38:48.485Z,67.51
2023-03-07T09:41:23.708Z,68.33
2023-03-07T09:44:14.281Z,67.60
2023-03-07T09:47:02.503Z,66.94
2023-03-07T09:49:37.476Z,65.84
2023-03-07T09:52:10.914Z,64.69
2023-03-07T09:54:40.715Z,64.41
2023-03-07T09:57:17.376Z,64.21
2023-03-07T10:00:09.076Z,66.46
2023-03-07T10:02:55.018Z,68.14
2023-03-07T10:05:58.935Z,65.47
2023-03-07T10:08:29.195Z,65.37
2023-03-07T10:11:02.004Z,63.71
2023-03-07T10:13:32.019Z,65.49
2023-03-07T10:16:02.147Z,64.57
2023-03-07T10:18:53.966Z,63.28
2023-03-07T10:21:31.764Z,63.13
2023-03-07T10:24:11.934Z,63.46
2023-03-07T10:26:54.223Z,63.42
2023-03-07T10:29:24.278Z,64.67
2023-03-07T10:32:04.127Z,62.30
2023-03-07T10:34:32.702Z,64.45
2023-03-07T10:37:09.626Z,64.33
2023-03-07T10:39:46.850Z,65.82
2023-03-07T10:42:17.646Z,72.05
2023-03-07T10:44:46.228Z,72.42
2023-03-07T10:47:19.747Z,72.43
2023-03-07T10:49:47.972Z,70.70
2023-03-07T10:52:35.992Z,67.72
2023-03-07T10:55:23.676Z,66.90
2023-03-07T10:57:51.002Z,68.33
2023-03-07T11:00:18.058Z,69.36
2023-03-07T11:02:47.293Z,65.41
2023-03-07T11:05:34.633Z,65.04
2023-03-07T11:08:21.735Z,62.65
2023-03-07T11:10:48.822Z,61.64
2023-03-07T11:13:20.697Z,61.82
2023-03-07T11:15:49.873Z,60.86
2023-03-07T11:18:26.521Z,57.81
2023-03-07T11:20:53.639Z,56.94
2023-03-07T11:23:24.957Z,53.59
2023-03-07T11:26:14.267Z,53.07
2023-03-07T11:28:41.794Z,51.75
2023-03-07T11:31:18.029Z,49.97
2023-03-07T11:33:59.373Z,49.32
2023-03-07T11:36:26.825Z,48.24
2023-03-07T11:38:54.254Z,47.52
2023-03-07T11:41:42.680Z,48.03
2023-03-07T11:44:20.111Z,47.35
2023-03-07T11:47:03.135Z,46.93
2023-03-07T11:49:35.140Z,46.06
2023-03-07T11:52:03.604Z,45.98
2023-03-07T11:54:50.223Z,43.80
2023-03-07T11:57:36.638Z,41.92
2023-03-07T12:00:03.832Z,41.54
2023-03-07T12:02:59.797Z,42.66
2023-03-07T12:05:29.607Z,43.21
2023-03-07T12:07:58.142Z,42.79
2023-03-07T12:10:41.375Z,43.22
2023-03-07T12:13:14.727Z,44.13
2023-03-07T12:16:06.679Z,44.71
2023-03-07T12:18:44.560Z,44.92
2023-03-07T12:21:11.934Z,44.36
2023-03-07T12:23:39.637Z,44.11
2023-03-07T12:26:17.706Z,43.57
2023-03-07T12:28:49.374Z,43.66
2023-03-07T12:31:28.701Z,43.33
2023-03-07T12:33:55.639Z,42.75
2023-03-07T12:36:22.902Z,42.74
2023-03-07T12:39:00.523Z,42.84
2023-03-07T12:41:41.111Z,42.60
2023-03-07T12:44:13.504Z,42.49
2023-03-07T12:47:04.843Z,42.62
2023-03-07T12:49:50.509Z,42.35
2023-03-07T12:52:38.885Z,42.86
2023-03-07T12:55:18.648Z,42.92
2023-03-07T12:57:51.113Z,43.72
2023-03-07T13:00:22.214Z,44.54
2023-03-07T13:03:02.694Z,44.88
2023-03-07T13:05:30.111Z,44.85
2023-03-07T13:08:16.122Z,44.83
2023-03-07T13:10:45.154Z,44.55
2023-03-07T13:13:51.092Z,44.65
2023-03-07T13:16:40.315Z,44.00
2023-03-07T13:19:26.774Z,43.75
2023-03-07T13:21:54.121Z,44.24
2023-03-07T13:24:38.596Z,43.93
2023-03-07T13:27:18.898Z,44.08
2023-03-07T13:30:04.524Z,43.79
2023-03-07T13:32:57.290Z,44.20
2023-03-07T13:35:33.195Z,43.46
2023-03-07T13:38:18.593Z,42.81
2023-03-07T13:40:45.439Z,42.66
2023-03-07T13:43:33.487Z,42.87
2023-03-07T13:46:00.672Z,43.26
2023-03-07T13:48:28.770Z,43.52
2023-03-07T13:50:55.281Z,44.01
2023-03-07T13:53:25.189Z,43.08
2023-03-07T13:56:12.589Z,42.85
2023-03-07T13:58:44.639Z,43.31
2023-03-07T14:01:47.211Z,43.21
2023-03-07T14:04:13.706Z,43.32
2023-03-07T14:06:42.679Z,44.45
2023-03-07T14:09:14.623Z,45.15
2023-03-07T14:11:45.476Z,44.98
2023-03-07T14:14:21.369Z,44.80
2023-03-07T14:17:07.467Z,44.11
2023-03-07T14:19:35.610Z,43.05
2023-03-07T14:22:06.417Z,42.89
2023-03-07T14:24:51.364Z,42.65
2023-03-07T14:27:18.282Z,42.38
2023-03-07T14:29:49.621Z,42.05
2023-03-07T14:32:32.381Z,42.34
2023-03-07T14:35:00.938Z,42.66
2023-03-07T14:37:32.884Z,42.46
2023-03-07T14:40:01.025Z,41.97
2023-03-07T14:42:33.987Z,41.77
2023-03-07T14:45:04.210Z,41.70
2023-03-07T14:47:55.536Z,41.68
2023-03-07T14:50:26.221Z,41.96
2023-03-07T14:52:56.133Z,42.27
2023-03-07T14:55:24.423Z,41.58
2023-03-07T14:57:53.154Z,41.45
2023-03-07T15:00:29.556Z,42.20
2023-03-07T15:03:04.387Z,42.67
2023-03-07T15:05:32.686Z,42.09
2023-03-07T15:07:59.790Z,42.14
2023-03-07T15:10:35.019Z,41.98
2023-03-07T15:13:04.035Z,42.11
2023-03-07T15:15:35.830Z,42.59
2023-03-07T15:18:25.657Z,42.42
2023-03-07T15:20:53.954Z,42.67
2023-03-07T15:23:22.886Z,43.24
2023-03-07T15:25:56.451Z,44.39
2023-03-07T15:28:28.255Z,44.23
2023-03-07T15:30:55.927Z,44.74
2023-03-07T15:33:24.366Z,44.96
2023-03-07T15:36:10.331Z,45.55
2023-03-07T15:38:37.834Z,45.70
2023-03-07T15:41:23.697Z,46.15
2023-03-07T15:44:03.489Z,44.98
2023-03-07T15:46:31.325Z,45.79
2023-03-07T15:48:58.226Z,45.98
2023-03-07T15:51:27.348Z,45.68
2023-03-07T15:53:58.250Z,46.18
2023-03-07T15:56:30.435Z,45.72
2023-03-07T15:58:59.869Z,45.74
2023-03-07T16:01:28.830Z,45.63
2023-03-07T16:03:57.678Z,46.04
2023-03-07T16:06:40.337Z,45.75
2023-03-07T16:09:10.160Z,46.52
2023-03-07T16:11:38.154Z,46.78
2023-03-07T16:14:04.897Z,45.95
2023-03-07T16:16:31.819Z,46.68
2023-03-07T16:18:59.043Z,46.48
2023-03-07T16:21:27.002Z,45.72
2023-03-07T16:23:56.728Z,45.28
2023-03-07T16:26:25.304Z,46.35
2023-03-07T16:28:52.450Z,45.55
2023-03-07T16:31:20.509Z,45.51
2023-03-07T16:33:48.156Z,45.97
2023-03-07T16:36:15.894Z,45.51
2023-03-07T16:38:42.839Z,45.81
2023-03-07T16:41:21.034Z,46.77
2023-03-07T16:43:52.737Z,47.15
2023-03-07T16:46:20.766Z,48.12
2023-03-07T16:48:47.623Z,48.43
2023-03-07T16:51:19.502Z,47.86
2023-03-07T16:53:47.163Z,47.63
2023-03-07T16:56:32.916Z,47.95
2023-03-07T16:59:02.039Z,49.01
2023-03-07T17:01:28.657Z,48.92
2023-03-07T17:03:59.175Z,48.23
2023-03-07T17:06:38.401Z,48.39
2023-03-07T17:09:06.397Z,48.69
2023-03-07T17:11:33.556Z,49.33
2023-03-07T17:14:02.898Z,49.74
2023-03-07T17:16:29.999Z,49.92
2023-03-07T17:18:57.963Z,49.88
2023-03-07T17:21:24.782Z,49.97
2023-03-07T17:23:51.487Z,48.96
2023-03-07T17:26:29.079Z,49.01
2023-03-07T17:28:57.018Z,48.36
2023-03-07T17:31:23.556Z,47.84
2023-03-07T17:33:50.376Z,48.01
2023-03-07T17:36:16.748Z,48.58
2023-03-07T17:38:43.342Z,48.74
2023-03-07T17:41:10.120Z,50.22
2023-03-07T17:43:36.505Z,50.83
2023-03-07T17:46:08.736Z,51.33
2023-03-07T17:48:36.013Z,50.21
2023-03-07T17:51:07.141Z,49.36
2023-03-07T17:53:35.137Z,50.27
2023-03-07T17:56:08.793Z,50.44
2023-03-07T17:58:35.190Z,50.37
2023-03-07T18:01:01.969Z,50.85
2023-03-07T18:03:29.361Z,51.06
2023-03-07T18:05:55.892Z,51.58
2023-03-07T18:08:22.997Z,51.75
2023-03-07T18:10:49.470Z,51.26
2023-03-07T18:13:15.852Z,51.58
2023-03-07T18:15:45.948Z,52.06
2023-03-07T18:18:12.893Z,52.39
2023-03-07T18:20:41.862Z,52.86
2023-03-07T18:23:09.013Z,53.08
2023-03-07T18:25:36.037Z,53.25
2023-03-07T18:28:03.368Z,53.73
2023-03-07T18:30:30.615Z,53.00
2023-03-07T18:32:58.235Z,53.80
2023-03-07T18:35:25.311Z,54.05
2023-03-07T18:37:52.240Z,53.58
2023-03-07T18:40:22.188Z,53.33
2023-03-07T18:42:48.813Z,53.90
2023-03-07T18:45:15.741Z,53.54
2023-03-07T18:47:42.682Z,52.77
2023-03-07T18:50:10.360Z,52.66
2023-03-07T18:52:37.101Z,53.48
2023-03-07T18:55:04.424Z,53.31
2023-03-07T18:57:32.282Z,53.43
2023-03-07T18:59:58.981Z,53.59
2023-03-07T19:02:25.590Z,53.04
2023-03-07T19:04:53.658Z,53.26
2023-03-07T19:07:20.313Z,53.28
2023-03-07T19:09:53.386Z,54.04
2023-03-07T19:12:20.398Z,54.67
2023-03-07T19:14:47.059Z,55.19
2023-03-07T19:17:13.594Z,55.85
2023-03-07T19:19:40.141Z,55.51
2023-03-07T19:22:07.784Z,54.58
2023-03-07T19:24:34.649Z,54.41
2023-03-07T19:27:01.260Z,54.04
2023-03-07T19:29:28.135Z,54.69
2023-03-07T19:31:54.882Z,54.15
2023-03-07T19:34:21.539Z,53.64
2023-03-07T19:36:47.910Z,54.29
2023-03-07T19:39:20.599Z,53.60
2023-03-07T19:41:50.704Z,53.84
2023-03-07T19:44:17.621Z,53.58
2023-03-07T19:46:46.401Z,53.09
2023-03-07T19:49:16.982Z,52.64
2023-03-07T19:51:43.845Z,52.57
2023-03-07T19:54:13.495Z,52.60
2023-03-07T19:56:42.686Z,52.68
2023-03-07T19:59:10.479Z,52.82
2023-03-07T20:01:38.201Z,52.72
2023-03-07T20:04:06.460Z,53.64
2023-03-07T20:06:33.659Z,54.22
2023-03-07T20:09:00.537Z,53.80
2023-03-07T20:11:31.805Z,54.26
2023-03-07T20:13:59.649Z,54.48
2023-03-07T20:16:29.119Z,54.29
2023-03-07T20:18:58.317Z,54.46
2023-03-07T20:21:28.139Z,54.24
2023-03-07T20:23:59.085Z,54.05
2023-03-07T20:26:27.636Z,53.88
2023-03-07T20:28:56.256Z,54.18
2023-03-07T20:31:23.822Z,54.15
2023-03-07T20:33:52.321Z,53.55
2023-03-07T20:36:22.565Z,53.64
2023-03-07T20:38:55.050Z,53.69
2023-03-07T20:41:23.666Z,53.18
2023-03-07T20:43:51.062Z,53.37
2023-03-07T20:46:18.806Z,53.21
2023-03-07T20:48:46.344Z,53.07
2023-03-07T20:51:21.037Z,53.94
2023-03-07T20:53:51.678Z,55.00
2023-03-07T20:56:19.370Z,54.90
2023-03-07T20:58:46.203Z,56.60
2023-03-07T21:01:15.135Z,57.31
2023-03-07T21:03:41.775Z,56.12
2023-03-07T21:06:08.634Z,56.62
2023-03-07T21:08:36.103Z,56.25
2023-03-07T21:11:02.806Z,56.54
2023-03-07T21:13:30.161Z,56.57
2023-03-07T21:15:58.035Z,56.82
2023-03-07T21:18:26.149Z,56.82
2023-03-07T21:20:52.963Z,57.61
2023-03-07T21:23:19.603Z,56.62
2023-03-07T21:25:46.742Z,56.14
2023-03-07T21:28:16.809Z,56.40
2023-03-07T21:30:43.609Z,56.90
2023-03-07T21:33:10.835Z,56.15
2023-03-07T21:35:41.275Z,56.55
2023-03-07T21:38:08.635Z,57.07
2023-03-07T21:40:35.391Z,56.72
2023-03-07T21:43:03.108Z,56.24
2023-03-07T21:45:31.714Z,56.14
2023-03-07T21:47:58.799Z,56.47
2023-03-07T21:50:25.831Z,56.69
2023-03-07T21:52:52.997Z,57.09
2023-03-07T21:55:19.813Z,57.45
2023-03-07T21:57:46.626Z,57.83
2023-03-07T22:00:17.204Z,57.32
2023-03-07T22:02:44.528Z,57.50
2023-03-07T22:05:13.324Z,57.46
2023-03-07T22:07:40.669Z,57.76
2023-03-07T22:10:07.590Z,57.59
2023-03-07T22:12:34.570Z,58.23
2023-03-07T22:15:01.771Z,57.99
2023-03-07T22:17:28.281Z,57.79
2023-03-07T22:19:55.864Z,57.88
2023-03-07T22:22:23.052Z,58.15
2023-03-07T22:24:49.897Z,58.52
2023-03-07T22:27:16.532Z,58.87
2023-03-07T22:29:44.462Z,58.68
2023-03-07T22:32:11.654Z,58.54
2023-03-07T22:34:38.298Z,58.02
2023-03-07T22:37:05.316Z,57.92
2023-03-07T22:39:31.968Z,58.18
2023-03-07T22:41:58.788Z,58.59
2023-03-07T22:44:25.174Z,58.13
2023-03-07T22:46:51.682Z,57.92
2023-03-07T22:49:18.623Z,57.86
2023-03-07T22:51:46.206Z,58.06
2023-03-07T22:54:13.143Z,57.79
2023-03-07T22:56:40.598Z,57.05
2023-03-07T22:59:07.785Z,56.91
2023-03-07T23:01:34.642Z,57.02
2023-03-07T23:04:01.200Z,56.73
2023-03-07T23:06:30.185Z,56.88
2023-03-07T23:08:59.526Z,57.08
2023-03-07T23:11:26.657Z,57.68
2023-03-07T23:13:54.186Z,56.89
2023-03-07T23:16:22.185Z,56.75
2023-03-07T23:18:50.966Z,56.42
2023-03-07T23:21:19.271Z,56.11
2023-03-07T23:23:45.870Z,56.55
2023-03-07T23:26:19.729Z,56.47
2023-03-07T23:28:46.291Z,57.14
2023-03-07T23:31:20.290Z,56.51
2023-03-07T23:33:47.217Z,56.35
2023-03-07T23:36:14.051Z,56.59
2023-03-07T23:38:40.703Z,56.53
2023-03-07T23:41:07.933Z,56.51
2023-03-07T23:43:34.766Z,56.92
2023-03-07T23:46:01.235Z,56.97
2023-03-07T23:48:27.733Z,57.57
2023-03-07T23:50:54.204Z,58.65
2023-03-07T23:53:20.706Z,58.92
2023-03-07T23:55:47.239Z,58.55
2023-03-07T23:58:13.793Z,57.78
